createdAt,value
2022-10-18T00:00:02.410Z,14.79
2022-10-18T00:02:31.349Z,14.79
2022-10-18T00:04:57.958Z,14.80
2022-10-18T00:07:24.646Z,14.74
2022-10-18T00:09:51.206Z,14.65
2022-10-18T00:12:17.804Z,14.65
2022-10-18T00:14:44.345Z,14.66
2022-10-18T00:17:11.008Z,14.67
2022-10-18T00:19:37.556Z,14.63
2022-10-18T00:22:04.281Z,14.59
2022-10-18T00:24:30.879Z,14.58
2022-10-18T00:26:57.505Z,14.61
2022-10-18T00:29:24.142Z,14.58
2022-10-18T00:31:51.297Z,14.63
2022-10-18T00:34:17.901Z,14.62
2022-10-18T00:36:44.892Z,14.60
2022-10-18T00:39:19.806Z,14.58
2022-10-18T00:41:47.568Z,14.57
2022-10-18T00:44:14.132Z,14.56
2022-10-18T00:46:43.525Z,14.56
2022-10-18T00:49:17.258Z,14.55
2022-10-18T00:51:47.067Z,14.57
2022-10-18T00:54:16.168Z,14.52
2022-10-18T00:56:44.844Z,14.53
2022-10-18T00:59:14.577Z,14.58
2022-10-18T01:01:41.257Z,14.59
2022-10-18T01:04:08.180Z,14.49
2022-10-18T01:06:47.965Z,14.34
2022-10-18T01:09:31.966Z,14.39
2022-10-18T01:12:24.522Z,14.40
2022-10-18T01:15:12.485Z,14.38
2022-10-18T01:17:48.134Z,14.31
2022-10-18T01:20:33.166Z,14.37
2022-10-18T01:23:16.034Z,14.31
2022-10-18T01:26:33.120Z,14.34
2022-10-18T01:29:15.558Z,14.34
2022-10-18T01:31:56.379Z,14.33
2022-10-18T01:34:29.031Z,14.27
2022-10-18T01:36:57.616Z,14.24
2022-10-18T01:39:28.135Z,14.28
2022-10-18T01:41:57.711Z,14.23
2022-10-18T01:44:26.862Z,14.19
2022-10-18T01:46:56.428Z,14.10
2022-10-18T01:49:24.548Z,14.16
2022-10-18T01:51:51.136Z,14.19
2022-10-18T01:54:22.630Z,14.15
2022-10-18T01:56:51.998Z,14.14
2022-10-18T01:59:38.121Z,14.06
2022-10-18T02:02:32.762Z,14.04
2022-10-18T02:05:28.715Z,13.97
2022-10-18T02:08:23.161Z,14.05
2022-10-18T02:11:04.680Z,13.99
2022-10-18T02:13:41.758Z,13.98
2022-10-18T02:16:13.269Z,13.98
2022-10-18T02:18:44.455Z,14.00
2022-10-18T02:21:15.776Z,13.99
2022-10-18T02:23:45.294Z,14.03
2022-10-18T02:26:13.368Z,14.01
2022-10-18T02:28:40.770Z,14.08
2022-10-18T02:31:30.828Z,14.06
2022-10-18T02:34:16.694Z,14.03
2022-10-18T02:36:48.103Z,14.02
2022-10-18T02:39:26.229Z,13.97
2022-10-18T02:41:54.634Z,13.93
2022-10-18T02:44:21.387Z,14.02
2022-10-18T02:46:48.467Z,13.98
2022-10-18T02:49:15.139Z,13.94
2022-10-18T02:51:41.822Z,13.95
2022-10-18T02:54:08.572Z,13.92
2022-10-18T02:56:35.878Z,13.77
2022-10-18T02:59:03.630Z,13.85
2022-10-18T03:01:30.325Z,13.82
2022-10-18T03:03:57.487Z,13.74
2022-10-18T03:06:24.173Z,13.66
2022-10-18T03:08:50.756Z,13.65
2022-10-18T03:11:17.424Z,13.72
2022-10-18T03:13:43.988Z,13.77
2022-10-18T03:16:10.681Z,13.82
2022-10-18T03:18:37.271Z,13.76
2022-10-18T03:21:07.915Z,13.72
2022-10-18T03:23:34.851Z,13.72
2022-10-18T03:26:01.564Z,13.73
2022-10-18T03:28:28.539Z,13.62
2022-10-18T03:31:01.026Z,13.58
2022-10-18T03:33:28.096Z,13.59
2022-10-18T03:35:54.643Z,13.55
2022-10-18T03:38:21.310Z,13.57
2022-10-18T03:40:47.917Z,13.51
2022-10-18T03:43:14.706Z,13.56
2022-10-18T03:45:41.394Z,13.51
2022-10-18T03:48:08.104Z,13.50
2022-10-18T03:50:34.717Z,13.46
2022-10-18T03:53:01.371Z,13.55
2022-10-18T03:55:28.038Z,13.57
2022-10-18T03:57:54.686Z,13.55
2022-10-18T04:00:21.325Z,13.60
2022-10-18T04:02:51.875Z,13.60
2022-10-18T04:05:23.931Z,13.55
2022-10-18T04:07:50.783Z,13.58
2022-10-18T04:10:18.644Z,13.57
2022-10-18T04:12:45.369Z,13.49
2022-10-18T04:15:12.021Z,13.51
2022-10-18T04:17:38.822Z,13.52
2022-10-18T04:20:06.052Z,13.50
2022-10-18T04:22:32.683Z,13.48
2022-10-18T04:24:59.296Z,13.45
2022-10-18T04:27:25.824Z,13.44
2022-10-18T04:29:52.488Z,13.50
2022-10-18T04:32:19.013Z,13.51
2022-10-18T04:34:45.625Z,13.49
2022-10-18T04:37:12.296Z,13.46
2022-10-18T04:39:38.986Z,13.44
2022-10-18T04:42:05.572Z,13.45
2022-10-18T04:44:32.262Z,13.43
2022-10-18T04:46:58.805Z,13.39
2022-10-18T04:49:25.556Z,13.38
2022-10-18T04:51:52.140Z,13.33
2022-10-18T04:54:18.776Z,13.23
2022-10-18T04:56:45.301Z,13.22
2022-10-18T04:59:12.022Z,13.22
2022-10-18T05:01:38.598Z,13.26
2022-10-18T05:04:05.376Z,13.30
2022-10-18T05:06:31.998Z,13.34
2022-10-18T05:08:58.608Z,13.31
2022-10-18T05:11:25.154Z,13.31
2022-10-18T05:13:52.430Z,13.20
2022-10-18T05:16:19.180Z,13.13
2022-10-18T05:18:45.903Z,13.18
2022-10-18T05:21:12.612Z,13.21
2022-10-18T05:23:39.735Z,13.16
2022-10-18T05:26:07.214Z,13.24
2022-10-18T05:28:39.686Z,13.26
2022-10-18T05:31:09.782Z,13.19
2022-10-18T05:33:36.743Z,13.17
2022-10-18T05:36:04.100Z,13.16
2022-10-18T05:38:31.130Z,13.06
2022-10-18T05:40:59.145Z,13.05
2022-10-18T05:43:29.288Z,13.13
2022-10-18T05:45:55.994Z,13.14
2022-10-18T05:48:22.673Z,13.15
2022-10-18T05:50:49.400Z,13.20
2022-10-18T05:53:35.756Z,13.16
2022-10-18T05:56:03.659Z,13.10
2022-10-18T05:58:30.344Z,13.16
2022-10-18T06:01:01.552Z,13.14
2022-10-18T06:03:30.583Z,13.13
2022-10-18T06:06:09.192Z,13.09
2022-10-18T06:08:36.752Z,13.18
2022-10-18T06:11:14.709Z,13.14
2022-10-18T06:13:42.854Z,13.15
2022-10-18T06:16:10.958Z,13.13
2022-10-18T06:18:38.372Z,13.16
2022-10-18T06:21:05.636Z,13.21
2022-10-18T06:23:32.464Z,13.15
2022-10-18T06:26:05.107Z,13.12
2022-10-18T06:28:34.235Z,13.08
2022-10-18T06:31:01.558Z,13.09
2022-10-18T06:33:30.305Z,13.18
2022-10-18T06:36:02.150Z,13.20
2022-10-18T06:38:29.836Z,13.16
2022-10-18T06:40:58.093Z,13.15
2022-10-18T06:43:25.168Z,13.23
2022-10-18T06:45:52.331Z,13.26
2022-10-18T06:51:10.615Z,13.29
2022-10-18T06:53:44.177Z,13.32
2022-10-18T06:56:15.606Z,13.34
2022-10-18T06:58:42.373Z,13.35
2022-10-18T07:01:12.293Z,13.41
2022-10-18T07:03:39.332Z,13.51
2022-10-18T07:06:07.533Z,13.59
2022-10-18T07:08:34.824Z,13.61
2022-10-18T07:11:01.698Z,13.61
2022-10-18T07:13:33.358Z,13.68
2022-10-18T07:16:10.658Z,13.70
2022-10-18T07:18:42.135Z,13.75
2022-10-18T07:21:11.547Z,13.74
2022-10-18T07:23:40.498Z,13.76
2022-10-18T07:26:27.538Z,13.81
2022-10-18T07:29:05.233Z,13.80
2022-10-18T07:31:32.004Z,13.91
2022-10-18T07:33:58.979Z,13.92
2022-10-18T07:36:25.997Z,13.97
2022-10-18T07:38:53.402Z,14.00
2022-10-18T07:41:20.770Z,14.01
2022-10-18T07:43:50.767Z,13.98
2022-10-18T07:46:18.360Z,14.03
2022-10-18T07:48:45.042Z,14.01
2022-10-18T07:51:12.606Z,13.96
2022-10-18T07:53:39.407Z,14.07
2022-10-18T07:56:11.509Z,14.11
2022-10-18T07:58:38.254Z,14.17
2022-10-18T08:01:06.989Z,14.22
2022-10-18T08:03:34.488Z,14.25
2022-10-18T08:06:01.123Z,14.31
2022-10-18T08:08:28.918Z,14.36
2022-10-18T08:10:55.886Z,14.32
2022-10-18T08:13:22.625Z,14.34
2022-10-18T08:15:49.587Z,14.33
2022-10-18T08:18:18.640Z,14.37
2022-10-18T08:20:46.376Z,14.41
2022-10-18T08:23:13.264Z,14.46
2022-10-18T08:25:40.287Z,14.51
2022-10-18T08:28:07.600Z,14.53
2022-10-18T08:30:35.871Z,14.58
2022-10-18T08:33:03.690Z,14.67
2022-10-18T08:35:31.675Z,14.72
2022-10-18T08:37:59.437Z,14.77
2022-10-18T08:40:27.596Z,14.80
2022-10-18T08:43:07.392Z,14.89
2022-10-18T08:45:43.261Z,14.97
2022-10-18T08:48:47.473Z,15.06
2022-10-18T08:51:25.807Z,15.06
2022-10-18T08:54:03.013Z,15.03
2022-10-18T08:56:30.285Z,15.00
2022-10-18T08:58:56.885Z,15.04
2022-10-18T09:01:50.100Z,15.09
2022-10-18T09:04:42.995Z,15.19
2022-10-18T09:07:38.472Z,15.23
2022-10-18T09:10:15.322Z,15.31
2022-10-18T09:12:57.276Z,15.35
2022-10-18T09:15:59.265Z,15.43
2022-10-18T09:18:35.179Z,15.45
2022-10-18T09:21:17.441Z,15.40
2022-10-18T09:24:01.462Z,15.44
2022-10-18T09:26:28.480Z,15.43
2022-10-18T09:29:15.667Z,15.53
2022-10-18T09:31:52.985Z,15.56
2022-10-18T09:34:45.777Z,15.60
2022-10-18T09:37:14.995Z,15.62
2022-10-18T09:39:42.229Z,15.72
2022-10-18T09:42:26.760Z,15.83
2022-10-18T09:45:02.349Z,15.94
2022-10-18T09:47:39.448Z,16.06
2022-10-18T09:50:22.285Z,16.10
2022-10-18T09:52:57.681Z,16.29
2022-10-18T09:55:30.680Z,16.35
2022-10-18T09:58:02.357Z,16.39
2022-10-18T10:00:38.773Z,16.46
2022-10-18T10:03:14.832Z,16.51
2022-10-18T10:05:42.590Z,16.53
2022-10-18T10:08:09.877Z,16.50
2022-10-18T10:10:40.531Z,16.49
2022-10-18T10:13:22.772Z,16.46
2022-10-18T10:16:00.103Z,16.53
2022-10-18T10:18:34.311Z,16.56
2022-10-18T10:21:07.196Z,16.70
2022-10-18T10:23:44.758Z,16.72
2022-10-18T10:26:25.191Z,16.80
2022-10-18T10:28:52.288Z,16.87
2022-10-18T10:31:24.834Z,16.86
2022-10-18T10:33:59.361Z,16.90
2022-10-18T10:36:26.293Z,16.98
2022-10-18T10:39:06.548Z,17.00
2022-10-18T10:41:33.944Z,17.06
2022-10-18T10:44:04.003Z,17.13
2022-10-18T10:46:36.415Z,17.25
2022-10-18T10:49:35.014Z,17.35
2022-10-18T10:52:33.735Z,17.38
2022-10-18T10:55:23.649Z,17.47
2022-10-18T10:57:52.451Z,17.46
2022-10-18T11:00:42.854Z,17.53
2022-10-18T11:03:33.815Z,17.58
2022-10-18T11:06:01.922Z,17.54
2022-10-18T11:08:36.142Z,17.56
2022-10-18T11:11:32.156Z,17.60
2022-10-18T11:17:05.611Z,17.75
2022-10-18T11:20:12.919Z,17.76
2022-10-18T11:22:53.614Z,17.84
2022-10-18T11:25:25.204Z,17.85
2022-10-18T11:28:19.301Z,17.94
2022-10-18T11:31:16.213Z,18.06
2022-10-18T11:34:24.553Z,18.08
2022-10-18T11:37:39.212Z,18.16
2022-10-18T11:40:08.374Z,18.24
2022-10-18T11:42:56.817Z,18.23
2022-10-18T11:45:44.696Z,18.34
2022-10-18T11:48:35.722Z,18.33
2022-10-18T11:51:25.560Z,18.31
2022-10-18T11:54:30.542Z,18.47
2022-10-18T11:57:03.013Z,18.43
2022-10-18T11:59:47.319Z,18.44
2022-10-18T12:02:48.088Z,18.52
2022-10-18T12:05:24.924Z,18.63
2022-10-18T12:08:09.940Z,18.67
2022-10-18T12:10:52.534Z,18.75
2022-10-18T12:13:40.469Z,18.86
2022-10-18T12:16:09.520Z,18.99
2022-10-18T12:18:47.285Z,19.06
2022-10-18T12:21:14.573Z,18.99
2022-10-18T12:24:07.312Z,19.05
2022-10-18T12:26:35.693Z,19.07
2022-10-18T12:29:26.133Z,19.15
2022-10-18T12:31:58.547Z,19.32
2022-10-18T12:34:51.946Z,19.50
2022-10-18T12:37:50.827Z,19.52
2022-10-18T12:40:23.077Z,19.62
2022-10-18T12:42:52.934Z,19.60
2022-10-18T12:45:33.375Z,19.55
2022-10-18T12:48:06.955Z,19.58
2022-10-18T12:50:35.628Z,19.53
2022-10-18T12:53:10.130Z,19.61
2022-10-18T12:55:45.440Z,19.64
2022-10-18T12:58:14.938Z,19.68
2022-10-18T13:00:45.142Z,19.69
2022-10-18T13:03:18.072Z,19.80
2022-10-18T13:05:55.939Z,19.90
2022-10-18T13:08:29.602Z,19.94
2022-10-18T13:11:02.149Z,19.93
2022-10-18T13:13:55.725Z,19.95
2022-10-18T13:16:22.697Z,20.05
2022-10-18T13:18:55.349Z,20.25
2022-10-18T13:21:43.625Z,20.24
2022-10-18T13:24:29.127Z,20.33
2022-10-18T13:27:31.392Z,20.38
2022-10-18T13:30:14.543Z,20.54
2022-10-18T13:32:57.403Z,20.57
2022-10-18T13:35:45.759Z,20.47
2022-10-18T13:38:49.715Z,20.58
2022-10-18T13:43:54.172Z,20.71
2022-10-18T13:46:33.486Z,20.73
2022-10-18T13:49:44.537Z,20.80
2022-10-18T13:52:52.191Z,20.86
2022-10-18T13:55:43.439Z,20.93
2022-10-18T13:58:23.466Z,21.01
2022-10-18T14:01:14.844Z,20.99
2022-10-18T14:04:05.772Z,21.07
2022-10-18T14:06:42.635Z,21.15
2022-10-18T14:09:40.254Z,21.17
2022-10-18T14:12:29.889Z,21.13
2022-10-18T14:15:04.144Z,21.08
2022-10-18T14:17:43.089Z,21.07
2022-10-18T14:20:30.990Z,21.13
2022-10-18T14:23:14.849Z,21.13
2022-10-18T14:25:41.924Z,21.11
2022-10-18T14:28:31.418Z,21.14
2022-10-18T14:31:06.556Z,21.13
2022-10-18T14:33:46.665Z,21.15
2022-10-18T14:36:22.740Z,21.18
2022-10-18T14:38:53.556Z,21.14
2022-10-18T14:41:20.183Z,21.16
2022-10-18T14:43:48.373Z,21.15
2022-10-18T14:46:22.185Z,21.14
2022-10-18T14:48:57.893Z,21.09
2022-10-18T14:51:26.627Z,21.10
2022-10-18T14:53:54.298Z,21.12
2022-10-18T14:56:30.262Z,21.11
2022-10-18T14:59:00.144Z,21.18
2022-10-18T15:01:30.717Z,21.14
2022-10-18T15:04:00.152Z,21.14
2022-10-18T15:06:27.692Z,21.14
2022-10-18T15:08:57.985Z,21.10
2022-10-18T15:11:25.920Z,21.10
2022-10-18T15:13:59.271Z,21.14
2022-10-18T15:16:29.269Z,21.09
2022-10-18T15:19:01.348Z,21.00
2022-10-18T15:21:28.107Z,20.93
2022-10-18T15:23:55.410Z,20.79
2022-10-18T15:26:26.808Z,20.71
2022-10-18T15:28:56.693Z,20.58
2022-10-18T15:31:23.429Z,20.42
2022-10-18T15:33:50.402Z,20.24
2022-10-18T15:36:26.622Z,20.11
2022-10-18T15:38:53.500Z,19.93
2022-10-18T15:41:45.069Z,19.83
2022-10-18T15:44:25.738Z,19.71
2022-10-18T15:46:56.154Z,19.61
2022-10-18T15:49:44.367Z,19.44
2022-10-18T15:52:40.070Z,19.33
2022-10-18T15:55:45.330Z,19.13
2022-10-18T15:58:39.097Z,18.95
2022-10-18T16:01:28.054Z,18.82
2022-10-18T16:06:26.584Z,18.65
2022-10-18T16:08:53.945Z,18.64
2022-10-18T16:11:26.525Z,18.63
2022-10-18T16:13:56.457Z,18.60
2022-10-18T16:16:29.138Z,18.44
2022-10-18T16:18:56.805Z,18.36
2022-10-18T16:21:28.265Z,18.44
2022-10-18T16:23:55.609Z,18.35
2022-10-18T16:26:23.153Z,18.28
2022-10-18T16:28:51.432Z,18.30
2022-10-18T16:31:24.037Z,18.24
2022-10-18T16:33:52.033Z,18.17
2022-10-18T16:36:21.465Z,18.19
2022-10-18T16:38:49.124Z,18.22
2022-10-18T16:41:16.918Z,18.19
2022-10-18T16:43:45.620Z,18.12
2022-10-18T16:46:18.685Z,18.14
2022-10-18T16:48:46.720Z,18.05
2022-10-18T16:51:13.528Z,18.03
2022-10-18T16:53:41.184Z,18.04
2022-10-18T16:56:14.396Z,18.03
2022-10-18T16:58:41.661Z,17.99
2022-10-18T17:01:12.361Z,17.98
2022-10-18T17:03:39.571Z,17.91
2022-10-18T17:06:06.781Z,17.87
2022-10-18T17:08:33.953Z,17.84
2022-10-18T17:11:01.808Z,17.83
2022-10-18T17:13:28.719Z,17.73
2022-10-18T17:15:55.566Z,17.69
2022-10-18T17:18:26.509Z,17.68
2022-10-18T17:20:53.754Z,17.59
2022-10-18T17:23:20.560Z,17.60
2022-10-18T17:25:59.097Z,17.57
2022-10-18T17:28:34.235Z,17.51
2022-10-18T17:31:01.029Z,17.56
2022-10-18T17:33:27.954Z,17.59
2022-10-18T17:35:54.776Z,17.63
2022-10-18T17:38:21.502Z,17.58
2022-10-18T17:40:48.187Z,17.55
2022-10-18T17:43:15.047Z,17.49
2022-10-18T17:45:49.268Z,17.46
2022-10-18T17:48:17.361Z,17.42
2022-10-18T17:50:43.910Z,17.40
2022-10-18T17:53:11.937Z,17.39
2022-10-18T17:55:39.305Z,17.34
2022-10-18T17:58:06.200Z,17.21
2022-10-18T18:00:32.802Z,17.18
2022-10-18T18:03:01.075Z,17.17
2022-10-18T18:05:32.431Z,17.23
2022-10-18T18:08:02.961Z,17.18
2022-10-18T18:10:35.075Z,17.18
2022-10-18T18:13:02.788Z,17.14
2022-10-18T18:15:30.076Z,17.12
2022-10-18T18:17:58.233Z,17.20
2022-10-18T18:20:25.846Z,17.17
2022-10-18T18:22:52.976Z,17.09
2022-10-18T18:25:20.092Z,17.10
2022-10-18T18:27:46.826Z,17.11
2022-10-18T18:30:14.379Z,17.06
2022-10-18T18:32:41.046Z,17.07
2022-10-18T18:35:07.826Z,16.98
2022-10-18T18:37:34.782Z,16.95
2022-10-18T18:40:01.487Z,16.91
2022-10-18T18:42:28.209Z,16.92
2022-10-18T18:44:54.904Z,16.92
2022-10-18T18:47:23.418Z,16.97
2022-10-18T18:49:51.543Z,16.93
2022-10-18T18:52:18.215Z,16.94
2022-10-18T18:54:45.038Z,16.89
2022-10-18T18:57:12.054Z,16.85
2022-10-18T18:59:38.690Z,16.84
2022-10-18T19:02:05.375Z,16.84
2022-10-18T19:04:33.326Z,16.79
2022-10-18T19:07:00.134Z,16.78
2022-10-18T19:09:27.508Z,16.69
2022-10-18T19:11:56.296Z,16.67
2022-10-18T19:14:25.897Z,16.66
2022-10-18T19:16:55.022Z,16.66
2022-10-18T19:19:24.071Z,16.59
2022-10-18T19:21:56.150Z,16.53
2022-10-18T19:24:25.014Z,16.48
2022-10-18T19:26:54.903Z,16.56
2022-10-18T19:29:23.085Z,16.58
2022-10-18T19:31:51.482Z,16.56
2022-10-18T19:34:20.962Z,16.53
2022-10-18T19:36:48.674Z,16.51
2022-10-18T19:39:18.698Z,16.46
2022-10-18T19:41:46.933Z,16.46
2022-10-18T19:44:13.637Z,16.46
2022-10-18T19:46:40.280Z,16.50
2022-10-18T19:49:06.966Z,16.52
2022-10-18T19:51:33.665Z,16.54
2022-10-18T19:54:00.475Z,16.50
2022-10-18T19:56:27.992Z,16.46
2022-10-18T19:58:57.131Z,16.37
2022-10-18T20:01:25.438Z,16.43
2022-10-18T20:03:52.149Z,16.40
2022-10-18T20:06:19.425Z,16.35
2022-10-18T20:08:46.644Z,16.39
2022-10-18T20:11:19.354Z,16.39
2022-10-18T20:13:46.423Z,16.32
2022-10-18T20:16:15.836Z,16.27
2022-10-18T20:18:45.735Z,16.27
2022-10-18T20:21:17.389Z,16.22
2022-10-18T20:23:44.560Z,16.20
2022-10-18T20:26:18.119Z,16.18
2022-10-18T20:28:48.653Z,16.18
2022-10-18T20:31:18.473Z,16.22
2022-10-18T20:33:46.509Z,16.19
2022-10-18T20:36:16.519Z,16.18
2022-10-18T20:38:45.852Z,16.08
2022-10-18T20:41:18.681Z,16.03
2022-10-18T20:43:57.532Z,16.05
2022-10-18T20:46:25.210Z,16.15
2022-10-18T20:48:53.451Z,16.14
2022-10-18T20:51:20.630Z,16.10
2022-10-18T20:53:47.306Z,16.03
2022-10-18T20:56:22.062Z,15.98
2022-10-18T20:58:51.790Z,15.97
2022-10-18T21:01:38.614Z,15.95
2022-10-18T21:04:07.636Z,15.93
2022-10-18T21:06:42.592Z,15.88
2022-10-18T21:09:15.558Z,15.90
2022-10-18T21:11:44.932Z,15.93
2022-10-18T21:14:17.472Z,15.86
2022-10-18T21:16:44.892Z,15.83
2022-10-18T21:19:14.667Z,15.78
2022-10-18T21:21:43.933Z,15.76
2022-10-18T21:24:10.894Z,15.75
2022-10-18T21:26:37.611Z,15.76
2022-10-18T21:29:05.519Z,15.80
2022-10-18T21:31:35.065Z,15.77
2022-10-18T21:34:04.506Z,15.74
2022-10-18T21:36:33.799Z,15.67
2022-10-18T21:39:01.921Z,15.67
2022-10-18T21:41:28.508Z,15.66
2022-10-18T21:43:55.439Z,15.70
2022-10-18T21:46:23.785Z,15.73
2022-10-18T21:48:52.851Z,15.70
2022-10-18T21:51:21.744Z,15.66
2022-10-18T21:53:51.179Z,15.57
2022-10-18T21:56:23.374Z,15.53
2022-10-18T21:58:50.515Z,15.56
2022-10-18T22:01:20.241Z,15.54
2022-10-18T22:03:49.503Z,15.44
2022-10-18T22:06:16.858Z,15.44
2022-10-18T22:08:48.166Z,15.45
2022-10-18T22:11:15.815Z,15.37
2022-10-18T22:13:43.098Z,15.43
2022-10-18T22:16:13.347Z,15.44
2022-10-18T22:18:40.761Z,15.38
2022-10-18T22:21:10.384Z,15.38
2022-10-18T22:23:43.193Z,15.43
2022-10-18T22:26:20.392Z,15.36
2022-10-18T22:28:47.725Z,15.32
2022-10-18T22:31:20.737Z,15.32
2022-10-18T22:33:53.358Z,15.34
2022-10-18T22:36:20.005Z,15.29
2022-10-18T22:38:46.563Z,15.26
2022-10-18T22:41:13.248Z,15.27
2022-10-18T22:43:40.014Z,15.29
2022-10-18T22:46:09.124Z,15.26
2022-10-18T22:48:36.405Z,15.22
2022-10-18T22:51:03.917Z,15.19
2022-10-18T22:53:31.501Z,15.26
2022-10-18T22:55:58.122Z,15.22
2022-10-18T22:58:25.057Z,15.18
2022-10-18T23:00:51.771Z,15.20
2022-10-18T23:03:18.967Z,15.12
2022-10-18T23:05:46.889Z,15.18
2022-10-18T23:08:14.348Z,15.18
2022-10-18T23:10:42.848Z,15.11
2022-10-18T23:13:10.728Z,15.04
2022-10-18T23:15:39.077Z,15.05
2022-10-18T23:18:06.337Z,15.10
2022-10-18T23:20:33.185Z,15.03
2022-10-18T23:22:59.810Z,14.98
2022-10-18T23:25:27.810Z,14.95
2022-10-18T23:27:54.381Z,15.04
2022-10-18T23:30:21.081Z,15.01
2022-10-18T23:32:47.890Z,14.95
2022-10-18T23:35:14.750Z,14.90
2022-10-18T23:37:41.315Z,14.92
2022-10-18T23:40:08.958Z,14.89
2022-10-18T23:42:35.491Z,14.95
2022-10-18T23:45:02.117Z,14.92
2022-10-18T23:47:28.736Z,14.87
2022-10-18T23:49:57.210Z,14.85
2022-10-18T23:52:24.733Z,14.83
2022-10-18T23:54:51.432Z,14.78
2022-10-18T23:57:18.033Z,14.73
2022-10-18T23:59:44.650Z,14.76
